sensor_id;sensor_type;location;lat;lon;timestamp;temperature;humidity
38604;DHT22;24924;50.054;8.790;2022-09-09T05:41:37;16.60;99.90
38604;DHT22;24924;50.054;8.790;2022-09-09T05:44:03;16.70;99.90
38604;DHT22;24924;50.054;8.790;2022-09-09T05:46:34;16.90;99.90
38604;DHT22;24924;50.054;8.790;2022-09-09T05:49:02;17.00;99.90
38604;DHT22;24924;50.054;8.790;2022-09-09T05:51:30;17.10;99.90
38604;DHT22;24924;50.054;8.790;2022-09-09T05:53:57;17.10;99.90
38604;DHT22;24924;50.054;8.790;2022-09-09T05:56:29;17.10;99.90
38604;DHT22;24924;50.054;8.790;2022-09-09T05:58:58;17.10;99.90
38604;DHT22;24924;50.054;8.790;2022-09-09T06:01:30;17.20;99.90
38604;DHT22;24924;50.054;8.790;2022-09-09T06:03:58;17.20;99.90
38604;DHT22;24924;50.054;8.790;2022-09-09T06:06:26;17.20;99.90
38604;DHT22;24924;50.054;8.790;2022-09-09T06:08:55;17.20;99.90
38604;DHT22;24924;50.054;8.790;2022-09-09T06:11:28;17.20;99.90
38604;DHT22;24924;50.054;8.790;2022-09-09T06:13:57;17.20;99.90
38604;DHT22;24924;50.054;8.790;2022-09-09T06:16:25;17.20;99.90
38604;DHT22;24924;50.054;8.790;2022-09-09T06:18:52;17.20;99.90
38604;DHT22;24924;50.054;8.790;2022-09-09T06:21:22;17.30;99.90
38604;DHT22;24924;50.054;8.790;2022-09-09T06:23:48;17.30;99.90
38604;DHT22;24924;50.054;8.790;2022-09-09T06:28:50;17.40;99.90
38604;DHT22;24924;50.054;8.790;2022-09-09T06:31:20;17.40;99.90
38604;DHT22;24924;50.054;8.790;2022-09-09T06:33:49;17.60;99.90
38604;DHT22;24924;50.054;8.790;2022-09-09T06:36:30;17.70;99.90
38604;DHT22;24924;50.054;8.790;2022-09-09T06:38:58;18.00;99.90
38604;DHT22;24924;50.054;8.790;2022-09-09T06:41:26;18.00;99.90
38604;DHT22;24924;50.054;8.790;2022-09-09T06:43:53;18.10;99.90
38604;DHT22;24924;50.054;8.790;2022-09-09T06:46:27;18.10;99.90
38604;DHT22;24924;50.054;8.790;2022-09-09T06:48:55;18.30;99.90
38604;DHT22;24924;50.054;8.790;2022-09-09T06:51:25;18.20;99.90
38604;DHT22;24924;50.054;8.790;2022-09-09T06:53:54;18.20;99.90
38604;DHT22;24924;50.054;8.790;2022-09-09T06:56:23;18.30;99.90
38604;DHT22;24924;50.054;8.790;2022-09-09T06:58:52;18.30;99.90
38604;DHT22;24924;50.054;8.790;2022-09-09T07:01:25;18.40;99.90
38604;DHT22;24924;50.054;8.790;2022-09-09T07:03:55;18.40;99.90
38604;DHT22;24924;50.054;8.790;2022-09-09T07:06:25;18.40;99.90
38604;DHT22;24924;50.054;8.790;2022-09-09T07:08:53;18.40;99.90
38604;DHT22;24924;50.054;8.790;2022-09-09T07:11:21;18.50;99.90
38604;DHT22;24924;50.054;8.790;2022-09-09T07:13:47;18.60;99.90
38604;DHT22;24924;50.054;8.790;2022-09-09T07:16:16;18.60;99.90
38604;DHT22;24924;50.054;8.790;2022-09-09T07:18:42;18.50;99.90
38604;DHT22;24924;50.054;8.790;2022-09-09T07:21:13;18.60;99.90
38604;DHT22;24924;50.054;8.790;2022-09-09T07:23:40;18.70;99.90
38604;DHT22;24924;50.054;8.790;2022-09-09T07:26:11;18.70;99.90
38604;DHT22;24924;50.054;8.790;2022-09-09T07:28:38;18.50;99.90
38604;DHT22;24924;50.054;8.790;2022-09-09T07:31:05;18.30;99.90
38604;DHT22;24924;50.054;8.790;2022-09-09T07:33:33;18.20;99.90
38604;DHT22;24924;50.054;8.790;2022-09-09T07:36:19;18.20;99.90
38604;DHT22;24924;50.054;8.790;2022-09-09T07:38:51;18.10;99.90
38604;DHT22;24924;50.054;8.790;2022-09-09T07:41:23;18.10;99.90
38604;DHT22;24924;50.054;8.790;2022-09-09T07:43:51;18.10;99.90
38604;DHT22;24924;50.054;8.790;2022-09-09T07:46:21;18.20;99.90
38604;DHT22;24924;50.054;8.790;2022-09-09T07:48:50;18.10;99.90
38604;DHT22;24924;50.054;8.790;2022-09-09T07:51:19;18.10;99.90
38604;DHT22;24924;50.054;8.790;2022-09-09T07:53:52;18.10;99.90
38604;DHT22;24924;50.054;8.790;2022-09-09T07:56:18;18.10;99.90
38604;DHT22;24924;50.054;8.790;2022-09-09T07:58:45;18.10;99.90
38604;DHT22;24924;50.054;8.790;2022-09-09T08:03:39;18.30;99.90
38604;DHT22;24924;50.054;8.790;2022-09-09T08:06:08;18.40;99.90
38604;DHT22;24924;50.054;8.790;2022-09-09T08:08:35;18.50;99.90
38604;DHT22;24924;50.054;8.790;2022-09-09T08:11:10;18.40;99.90
38604;DHT22;24924;50.054;8.790;2022-09-09T08:13:38;18.40;99.90
38604;DHT22;24924;50.054;8.790;2022-09-09T08:16:08;18.40;99.90
38604;DHT22;24924;50.054;8.790;2022-09-09T08:18:35;18.40;99.90
38604;DHT22;24924;50.054;8.790;2022-09-09T08:21:14;18.30;99.90
38604;DHT22;24924;50.054;8.790;2022-09-09T08:23:43;18.40;99.90
38604;DHT22;24924;50.054;8.790;2022-09-09T08:26:14;18.50;99.90
38604;DHT22;24924;50.054;8.790;2022-09-09T08:28:41;18.70;99.90
38604;DHT22;24924;50.054;8.790;2022-09-09T08:31:13;18.80;99.90
38604;DHT22;24924;50.054;8.790;2022-09-09T08:33:40;18.70;99.90
38604;DHT22;24924;50.054;8.790;2022-09-09T08:36:10;18.80;99.90
38604;DHT22;24924;50.054;8.790;2022-09-09T08:38:36;18.80;99.90
38604;DHT22;24924;50.054;8.790;2022-09-09T08:44:08;18.80;99.90
38604;DHT22;24924;50.054;8.790;2022-09-09T08:47:11;18.80;99.90
38604;DHT22;24924;50.054;8.790;2022-09-09T08:58:23;19.00;99.90
38604;DHT22;24924;50.054;8.790;2022-09-09T09:01:05;19.00;99.90
38604;DHT22;24924;50.054;8.790;2022-09-09T09:04:07;19.00;99.90
38604;DHT22;24924;50.054;8.790;2022-09-09T09:06:59;19.20;99.90
38604;DHT22;24924;50.054;8.790;2022-09-09T09:09:40;19.30;99.90
38604;DHT22;24924;50.054;8.790;2022-09-09T09:12:18;19.20;99.90
38604;DHT22;24924;50.054;8.790;2022-09-09T09:14:47;19.10;99.90
38604;DHT22;24924;50.054;8.790;2022-09-09T09:17:19;19.20;99.90
38604;DHT22;24924;50.054;8.790;2022-09-09T09:19:49;19.30;99.90
38604;DHT22;24924;50.054;8.790;2022-09-09T09:25:39;19.70;99.90
38604;DHT22;24924;50.054;8.790;2022-09-09T09:28:07;20.20;99.90
38604;DHT22;24924;50.054;8.790;2022-09-09T09:30:42;20.20;99.90
38604;DHT22;24924;50.054;8.790;2022-09-09T09:33:26;20.10;99.90
38604;DHT22;24924;50.054;8.790;2022-09-09T09:35:56;19.60;99.90
38604;DHT22;24924;50.054;8.790;2022-09-09T09:38:25;19.50;99.90
38604;DHT22;24924;50.054;8.790;2022-09-09T09:40:57;19.60;99.90
38604;DHT22;24924;50.054;8.790;2022-09-09T09:43:32;19.40;99.90
38604;DHT22;24924;50.054;8.790;2022-09-09T09:46:03;19.40;99.90
38604;DHT22;24924;50.054;8.790;2022-09-09T09:48:30;19.40;99.90
38604;DHT22;24924;50.054;8.790;2022-09-09T09:51:16;19.50;99.90
38604;DHT22;24924;50.054;8.790;2022-09-09T09:53:44;19.30;99.90
38604;DHT22;24924;50.054;8.790;2022-09-09T09:56:13;19.50;99.90
38604;DHT22;24924;50.054;8.790;2022-09-09T09:58:50;19.80;99.90
38604;DHT22;24924;50.054;8.790;2022-09-09T10:01:23;20.40;99.90
38604;DHT22;24924;50.054;8.790;2022-09-09T10:03:54;21.00;99.90
38604;DHT22;24924;50.054;8.790;2022-09-09T10:06:38;21.60;99.90
38604;DHT22;24924;50.054;8.790;2022-09-09T10:09:28;21.20;99.90
38604;DHT22;24924;50.054;8.790;2022-09-09T10:12:24;20.40;99.90
38604;DHT22;24924;50.054;8.790;2022-09-09T10:20:48;20.00;99.90
38604;DHT22;24924;50.054;8.790;2022-09-09T10:23:50;20.10;99.90
38604;DHT22;24924;50.054;8.790;2022-09-09T10:26:31;20.00;99.90
38604;DHT22;24924;50.054;8.790;2022-09-09T10:29:20;19.40;99.90
38604;DHT22;24924;50.054;8.790;2022-09-09T10:37:07;19.20;99.90
38604;DHT22;24924;50.054;8.790;2022-09-09T10:39:40;19.10;99.90
38604;DHT22;24924;50.054;8.790;2022-09-09T10:42:09;18.90;99.90
38604;DHT22;24924;50.054;8.790;2022-09-09T10:50:29;19.20;99.90
38604;DHT22;24924;50.054;8.790;2022-09-09T10:53:24;19.20;99.90
38604;DHT22;24924;50.054;8.790;2022-09-09T10:56:01;19.60;99.90
38604;DHT22;24924;50.054;8.790;2022-09-09T10:58:58;19.90;99.90
38604;DHT22;24924;50.054;8.790;2022-09-09T11:01:26;19.90;99.90
38604;DHT22;24924;50.054;8.790;2022-09-09T11:04:06;20.10;99.90
38604;DHT22;24924;50.054;8.790;2022-09-09T11:06:39;20.10;99.90
38604;DHT22;24924;50.054;8.790;2022-09-09T11:09:15;20.60;99.90
38604;DHT22;24924;50.054;8.790;2022-09-09T11:11:51;21.20;99.90
38604;DHT22;24924;50.054;8.790;2022-09-09T11:14:24;21.50;99.90
38604;DHT22;24924;50.054;8.790;2022-09-09T11:17:07;21.60;99.90
38604;DHT22;24924;50.054;8.790;2022-09-09T11:19:38;21.80;99.90
38604;DHT22;24924;50.054;8.790;2022-09-09T11:22:28;21.60;99.90
38604;DHT22;24924;50.054;8.790;2022-09-09T11:41:09;20.80;99.90
38604;DHT22;24924;50.054;8.790;2022-09-09T11:43:45;20.90;99.90
38604;DHT22;24924;50.054;8.790;2022-09-09T11:46:14;21.20;99.90
38604;DHT22;24924;50.054;8.790;2022-09-09T11:48:45;21.30;99.90
38604;DHT22;24924;50.054;8.790;2022-09-09T11:56:30;21.60;99.90
38604;DHT22;24924;50.054;8.790;2022-09-09T11:59:03;21.70;99.90
38604;DHT22;24924;50.054;8.790;2022-09-09T12:01:40;22.10;99.90
38604;DHT22;24924;50.054;8.790;2022-09-09T12:06:55;21.40;99.90
38604;DHT22;24924;50.054;8.790;2022-09-09T12:09:48;21.10;99.90
38604;DHT22;24924;50.054;8.790;2022-09-09T12:12:26;21.00;99.90
38604;DHT22;24924;50.054;8.790;2022-09-09T12:15:28;21.00;99.90
38604;DHT22;24924;50.054;8.790;2022-09-09T12:17:57;20.70;99.90
38604;DHT22;24924;50.054;8.790;2022-09-09T12:28:24;20.10;99.90
38604;DHT22;24924;50.054;8.790;2022-09-09T12:33:44;19.70;99.90
38604;DHT22;24924;50.054;8.790;2022-09-09T12:36:16;19.80;99.90
38604;DHT22;24924;50.054;8.790;2022-09-09T12:38:43;19.90;99.90
38604;DHT22;24924;50.054;8.790;2022-09-09T12:41:26;19.80;99.90
38604;DHT22;24924;50.054;8.790;2022-09-09T12:44:04;19.60;99.90
38604;DHT22;24924;50.054;8.790;2022-09-09T12:46:42;19.40;99.90
38604;DHT22;24924;50.054;8.790;2022-09-09T12:49:41;19.40;99.90
38604;DHT22;24924;50.054;8.790;2022-09-09T12:52:32;19.30;99.90
38604;DHT22;24924;50.054;8.790;2022-09-09T12:55:02;19.20;99.90
38604;DHT22;24924;50.054;8.790;2022-09-09T12:57:36;19.10;99.90
38604;DHT22;24924;50.054;8.790;2022-09-09T13:00:11;19.10;99.90
38604;DHT22;24924;50.054;8.790;2022-09-09T13:02:46;19.10;99.90
38604;DHT22;24924;50.054;8.790;2022-09-09T13:05:15;18.80;99.90
38604;DHT22;24924;50.054;8.790;2022-09-09T13:07:42;18.70;99.90
38604;DHT22;24924;50.054;8.790;2022-09-09T13:10:11;18.60;99.90
38604;DHT22;24924;50.054;8.790;2022-09-09T13:12:38;18.50;99.90
38604;DHT22;24924;50.054;8.790;2022-09-09T13:15:04;18.60;99.90
38604;DHT22;24924;50.054;8.790;2022-09-09T13:17:35;18.60;99.90
38604;DHT22;24924;50.054;8.790;2022-09-09T13:20:01;18.50;99.90
38604;DHT22;24924;50.054;8.790;2022-09-09T13:22:36;18.60;99.90
38604;DHT22;24924;50.054;8.790;2022-09-09T13:25:13;18.60;99.90
38604;DHT22;24924;50.054;8.790;2022-09-09T13:30:30;18.70;99.90
38604;DHT22;24924;50.054;8.790;2022-09-09T13:36:05;18.70;99.90
38604;DHT22;24924;50.054;8.790;2022-09-09T13:41:43;18.70;99.90
38604;DHT22;24924;50.054;8.790;2022-09-09T13:44:27;18.60;99.90
38604;DHT22;24924;50.054;8.790;2022-09-09T13:47:05;18.70;99.90
38604;DHT22;24924;50.054;8.790;2022-09-09T13:49:31;18.60;99.90
38604;DHT22;24924;50.054;8.790;2022-09-09T13:52:10;18.70;99.90
38604;DHT22;24924;50.054;8.790;2022-09-09T13:54:36;18.80;99.90
38604;DHT22;24924;50.054;8.790;2022-09-09T13:57:03;19.10;99.90
38604;DHT22;24924;50.054;8.790;2022-09-09T13:59:30;19.30;99.90
38604;DHT22;24924;50.054;8.790;2022-09-09T14:01:57;20.20;99.90
38604;DHT22;24924;50.054;8.790;2022-09-09T14:04:23;20.90;99.90
38604;DHT22;24924;50.054;8.790;2022-09-09T14:06:49;21.70;99.90
38604;DHT22;24924;50.054;8.790;2022-09-09T14:09:17;21.90;99.90
38604;DHT22;24924;50.054;8.790;2022-09-09T14:11:44;22.40;99.90
38604;DHT22;24924;50.054;8.790;2022-09-09T14:14:11;22.30;99.90
38604;DHT22;24924;50.054;8.790;2022-09-09T14:16:37;22.20;99.90
38604;DHT22;24924;50.054;8.790;2022-09-09T14:19:03;22.20;99.90
38604;DHT22;24924;50.054;8.790;2022-09-09T14:21:29;22.10;99.90
38604;DHT22;24924;50.054;8.790;2022-09-09T14:23:56;21.70;99.90
38604;DHT22;24924;50.054;8.790;2022-09-09T14:26:24;21.50;99.90
38604;DHT22;24924;50.054;8.790;2022-09-09T14:28:50;20.80;99.90
38604;DHT22;24924;50.054;8.790;2022-09-09T14:31:17;20.50;99.90
38604;DHT22;24924;50.054;8.790;2022-09-09T14:33:43;20.20;99.90
38604;DHT22;24924;50.054;8.790;2022-09-09T14:36:10;19.90;99.90
38604;DHT22;24924;50.054;8.790;2022-09-09T14:38:37;19.70;99.90
38604;DHT22;24924;50.054;8.790;2022-09-09T14:41:23;19.90;99.90
38604;DHT22;24924;50.054;8.790;2022-09-09T14:43:49;20.00;99.90
38604;DHT22;24924;50.054;8.790;2022-09-09T14:46:17;20.20;99.90
38604;DHT22;24924;50.054;8.790;2022-09-09T14:48:43;19.90;99.90
38604;DHT22;24924;50.054;8.790;2022-09-09T14:51:17;19.90;99.90
38604;DHT22;24924;50.054;8.790;2022-09-09T14:53:44;19.90;99.90
38604;DHT22;24924;50.054;8.790;2022-09-09T14:56:16;19.90;99.90
38604;DHT22;24924;50.054;8.790;2022-09-09T14:58:42;19.90;99.90
38604;DHT22;24924;50.054;8.790;2022-09-09T15:01:11;19.90;99.90
38604;DHT22;24924;50.054;8.790;2022-09-09T15:03:38;19.70;99.90
38604;DHT22;24924;50.054;8.790;2022-09-09T15:06:06;19.60;99.90
38604;DHT22;24924;50.054;8.790;2022-09-09T15:08:35;19.50;99.90
38604;DHT22;24924;50.054;8.790;2022-09-09T15:11:03;19.40;99.90
38604;DHT22;24924;50.054;8.790;2022-09-09T15:13:29;19.40;99.90
38604;DHT22;24924;50.054;8.790;2022-09-09T15:15:55;19.30;99.90
38604;DHT22;24924;50.054;8.790;2022-09-09T15:18:21;19.30;99.90
38604;DHT22;24924;50.054;8.790;2022-09-09T15:20:47;19.40;99.90
38604;DHT22;24924;50.054;8.790;2022-09-09T15:23:14;19.30;99.90
38604;DHT22;24924;50.054;8.790;2022-09-09T15:25:55;19.40;99.90
38604;DHT22;24924;50.054;8.790;2022-09-09T15:28:22;19.50;99.90
38604;DHT22;24924;50.054;8.790;2022-09-09T15:30:51;20.10;99.90
38604;DHT22;24924;50.054;8.790;2022-09-09T15:33:19;20.50;99.90
38604;DHT22;24924;50.054;8.790;2022-09-09T15:35:45;20.50;99.90
38604;DHT22;24924;50.054;8.790;2022-09-09T15:38:11;20.80;99.90
38604;DHT22;24924;50.054;8.790;2022-09-09T15:40:39;21.10;99.90
38604;DHT22;24924;50.054;8.790;2022-09-09T15:43:06;21.60;99.90
38604;DHT22;24924;50.054;8.790;2022-09-09T15:45:33;21.30;99.90
38604;DHT22;24924;50.054;8.790;2022-09-09T15:48:02;21.30;99.90
38604;DHT22;24924;50.054;8.790;2022-09-09T15:50:29;21.30;99.90
38604;DHT22;24924;50.054;8.790;2022-09-09T15:52:57;21.60;99.90
38604;DHT22;24924;50.054;8.790;2022-09-09T15:55:22;22.50;99.90
38604;DHT22;24924;50.054;8.790;2022-09-09T15:57:49;23.00;99.90
38604;DHT22;24924;50.054;8.790;2022-09-09T16:00:15;23.30;99.90
38604;DHT22;24924;50.054;8.790;2022-09-09T16:02:41;22.90;99.90
38604;DHT22;24924;50.054;8.790;2022-09-09T16:05:08;22.50;99.90
38604;DHT22;24924;50.054;8.790;2022-09-09T16:07:33;22.40;99.90
38604;DHT22;24924;50.054;8.790;2022-09-09T16:10:00;21.80;99.90
38604;DHT22;24924;50.054;8.790;2022-09-09T16:12:26;21.60;99.90
38604;DHT22;24924;50.054;8.790;2022-09-09T16:14:52;21.00;99.90
38604;DHT22;24924;50.054;8.790;2022-09-09T16:17:17;20.60;99.90
38604;DHT22;24924;50.054;8.790;2022-09-09T16:19:45;20.40;99.90
38604;DHT22;24924;50.054;8.790;2022-09-09T16:22:11;20.30;99.90
38604;DHT22;24924;50.054;8.790;2022-09-09T16:24:37;20.20;99.90
38604;DHT22;24924;50.054;8.790;2022-09-09T16:27:03;20.10;99.90
38604;DHT22;24924;50.054;8.790;2022-09-09T16:29:29;20.00;99.90
38604;DHT22;24924;50.054;8.790;2022-09-09T16:31:55;19.80;99.90
38604;DHT22;24924;50.054;8.790;2022-09-09T16:34:21;19.80;99.90
38604;DHT22;24924;50.054;8.790;2022-09-09T16:36:48;19.90;99.90
38604;DHT22;24924;50.054;8.790;2022-09-09T16:39:16;19.60;99.90
38604;DHT22;24924;50.054;8.790;2022-09-09T16:41:43;19.60;99.90
38604;DHT22;24924;50.054;8.790;2022-09-09T16:44:12;19.70;99.90
38604;DHT22;24924;50.054;8.790;2022-09-09T16:46:42;19.60;99.90
38604;DHT22;24924;50.054;8.790;2022-09-09T16:49:15;19.50;99.90
38604;DHT22;24924;50.054;8.790;2022-09-09T16:51:49;19.40;99.90
38604;DHT22;24924;50.054;8.790;2022-09-09T16:54:18;19.30;99.90
38604;DHT22;24924;50.054;8.790;2022-09-09T16:56:46;19.30;99.90
38604;DHT22;24924;50.054;8.790;2022-09-09T16:59:15;19.30;99.90
38604;DHT22;24924;50.054;8.790;2022-09-09T17:01:42;19.30;99.90
38604;DHT22;24924;50.054;8.790;2022-09-09T17:04:16;19.20;99.90
38604;DHT22;24924;50.054;8.790;2022-09-09T17:06:47;19.20;99.90
